createdAt,value
2018-06-16T00:01:27.661Z,77.28
2018-06-16T00:03:57.057Z,76.84
2018-06-16T00:06:25.977Z,76.83
2018-06-16T00:08:55.559Z,76.95
2018-06-16T00:11:24.479Z,77.28
2018-06-16T00:13:53.512Z,77.20
2018-06-16T00:16:22.425Z,77.04
2018-06-16T00:18:51.331Z,76.98
2018-06-16T00:21:20.272Z,77.14
2018-06-16T00:23:49.188Z,76.99
2018-06-16T00:26:18.108Z,76.40
2018-06-16T00:28:47.068Z,76.98
2018-06-16T00:31:15.997Z,76.73
2018-06-16T00:33:44.936Z,76.78
2018-06-16T00:36:13.874Z,76.89
2018-06-16T00:38:42.836Z,77.62
2018-06-16T00:41:12.344Z,77.60
2018-06-16T00:43:41.732Z,76.65
2018-06-16T00:46:11.238Z,77.22
2018-06-16T00:48:40.707Z,77.15
2018-06-16T00:51:10.336Z,77.13
2018-06-16T00:53:39.297Z,77.12
2018-06-16T00:56:08.220Z,77.28
2018-06-16T00:58:37.147Z,77.92
2018-06-16T01:01:06.067Z,77.79
2018-06-16T01:03:35.015Z,77.65
2018-06-16T01:06:03.933Z,77.71
2018-06-16T01:08:32.860Z,77.79
2018-06-16T01:11:01.777Z,77.75
2018-06-16T01:13:30.713Z,77.83
2018-06-16T01:15:59.659Z,77.76
2018-06-16T01:18:28.788Z,78.35
2018-06-16T01:20:58.066Z,78.15
2018-06-16T01:23:27.232Z,78.09
2018-06-16T01:25:56.530Z,78.58
2018-06-16T01:28:26.044Z,78.03
2018-06-16T01:30:54.996Z,78.25
2018-06-16T01:33:23.926Z,78.42
2018-06-16T01:35:52.843Z,78.10
2018-06-16T01:38:21.957Z,78.23
2018-06-16T01:40:50.903Z,78.62
2018-06-16T01:43:19.815Z,78.21
2018-06-16T01:45:48.740Z,77.39
2018-06-16T01:48:17.677Z,78.28
2018-06-16T01:50:47.177Z,78.25
2018-06-16T01:53:16.116Z,78.06
2018-06-16T01:55:45.034Z,78.14
2018-06-16T01:58:13.952Z,77.93
2018-06-16T02:00:42.871Z,78.51
2018-06-16T02:03:11.792Z,78.65
2018-06-16T02:05:40.820Z,78.58
2018-06-16T02:08:09.876Z,78.37
2018-06-16T02:10:38.909Z,78.93
2018-06-16T02:13:07.960Z,79.57
2018-06-16T02:15:36.900Z,79.54
2018-06-16T02:18:05.881Z,79.32
2018-06-16T02:20:34.794Z,79.43
2018-06-16T02:23:03.732Z,79.86
2018-06-16T02:25:32.716Z,79.29
2018-06-16T02:28:01.660Z,79.49
2018-06-16T02:30:30.598Z,80.19
2018-06-16T02:32:59.516Z,80.17
2018-06-16T02:35:28.472Z,79.81
2018-06-16T02:37:57.472Z,80.65
2018-06-16T02:40:26.420Z,80.52
2018-06-16T02:42:55.372Z,80.84
2018-06-16T02:45:24.291Z,80.80
2018-06-16T02:47:53.209Z,80.87
2018-06-16T02:50:22.260Z,80.59
2018-06-16T02:52:51.085Z,80.93
2018-06-16T02:55:20.023Z,81.27
2018-06-16T02:57:48.906Z,81.55
2018-06-16T03:00:17.803Z,81.47
2018-06-16T03:02:47.145Z,81.30
2018-06-16T03:05:16.334Z,81.21
2018-06-16T03:07:45.730Z,81.34
2018-06-16T03:10:14.884Z,81.27
2018-06-16T03:12:44.040Z,81.57
2018-06-16T03:15:13.004Z,80.84
2018-06-16T03:17:41.877Z,81.52
2018-06-16T03:20:10.791Z,81.49
2018-06-16T03:22:39.717Z,81.01
2018-06-16T03:25:08.641Z,80.79
2018-06-16T03:27:37.570Z,80.82
2018-06-16T03:30:06.742Z,80.69
2018-06-16T03:32:35.699Z,81.15
2018-06-16T03:35:05.574Z,81.54
2018-06-16T03:37:34.778Z,81.24
2018-06-16T03:40:03.720Z,81.78
2018-06-16T03:42:32.731Z,81.28
2018-06-16T03:45:02.215Z,81.85
2018-06-16T03:47:31.139Z,81.58
2018-06-16T03:50:00.079Z,81.57
2018-06-16T03:52:29.124Z,81.26
2018-06-16T03:54:58.414Z,81.23
2018-06-16T03:57:27.359Z,81.40
2018-06-16T03:59:56.260Z,81.42
2018-06-16T04:02:25.178Z,80.85
2018-06-16T04:04:54.110Z,81.05
2018-06-16T04:07:23.014Z,81.01
2018-06-16T04:09:52.268Z,80.82
2018-06-16T04:12:21.363Z,81.03
2018-06-16T04:14:50.376Z,81.42
2018-06-16T04:17:20.997Z,81.60
2018-06-16T04:19:51.116Z,81.26
2018-06-16T04:22:20.328Z,81.40
2018-06-16T04:24:50.112Z,81.57
2018-06-16T04:27:19.044Z,81.92
2018-06-16T04:29:47.958Z,81.35
2018-06-16T04:32:16.886Z,81.84
2018-06-16T04:34:45.787Z,82.18
2018-06-16T04:37:14.718Z,82.01
2018-06-16T04:39:43.648Z,81.80
2018-06-16T04:42:12.560Z,81.86
2018-06-16T04:44:41.457Z,82.25
2018-06-16T04:47:10.379Z,82.82
2018-06-16T04:49:39.529Z,82.20
2018-06-16T04:52:08.430Z,82.77
2018-06-16T04:54:37.331Z,83.09
2018-06-16T04:57:06.220Z,83.15
2018-06-16T04:59:35.139Z,83.71
2018-06-16T05:02:04.048Z,83.64
2018-06-16T05:04:33.016Z,83.17
2018-06-16T05:07:01.941Z,83.36
2018-06-16T05:09:34.412Z,84.33
2018-06-16T05:12:03.538Z,84.54
2018-06-16T05:14:32.488Z,84.08
2018-06-16T05:17:01.433Z,84.32
2018-06-16T05:19:30.339Z,84.79
2018-06-16T05:21:59.282Z,84.72
2018-06-16T05:24:28.205Z,84.62
2018-06-16T05:26:57.156Z,84.53
2018-06-16T05:29:26.062Z,84.01
2018-06-16T05:31:54.977Z,84.36
2018-06-16T05:34:23.883Z,84.54
2018-06-16T05:36:52.791Z,84.89
2018-06-16T05:39:22.410Z,84.49
2018-06-16T05:41:51.388Z,84.43
2018-06-16T05:44:20.325Z,84.15
2018-06-16T05:46:49.261Z,83.79
2018-06-16T05:49:18.206Z,84.13
2018-06-16T05:51:47.139Z,84.00
2018-06-16T05:54:16.088Z,83.80
2018-06-16T05:56:44.986Z,83.44
2018-06-16T05:59:13.949Z,83.19
2018-06-16T06:01:42.859Z,83.15
2018-06-16T06:04:11.805Z,83.08
2018-06-16T06:06:44.102Z,82.88
2018-06-16T06:09:13.141Z,82.57
2018-06-16T06:11:42.049Z,82.37
2018-06-16T06:14:11.143Z,82.36
2018-06-16T06:16:40.458Z,82.74
2018-06-16T06:19:09.379Z,82.15
2018-06-16T06:21:38.299Z,81.99
2018-06-16T06:24:07.563Z,81.64
2018-06-16T06:26:36.501Z,81.55
2018-06-16T06:29:05.419Z,81.24
2018-06-16T06:31:40.133Z,81.32
2018-06-16T06:34:09.038Z,81.07
2018-06-16T06:36:41.332Z,80.72
2018-06-16T06:39:10.810Z,80.64
2018-06-16T06:41:39.819Z,80.43
2018-06-16T06:44:08.823Z,80.18
2018-06-16T06:46:37.769Z,80.69
2018-06-16T06:49:06.789Z,79.56
2018-06-16T06:51:35.699Z,79.80
2018-06-16T06:54:04.716Z,79.95
2018-06-16T06:56:34.300Z,80.33
2018-06-16T06:59:03.274Z,79.17
2018-06-16T07:01:32.265Z,78.70
2018-06-16T07:04:01.182Z,79.29
2018-06-16T07:06:30.079Z,78.60
2018-06-16T07:08:59.010Z,78.81
2018-06-16T07:11:27.938Z,78.83
2018-06-16T07:13:56.845Z,78.88
2018-06-16T07:16:25.785Z,78.48
2018-06-16T07:18:54.697Z,78.92
2018-06-16T07:21:23.641Z,78.24
2018-06-16T07:23:52.542Z,77.83
2018-06-16T07:26:21.463Z,78.40
2018-06-16T07:28:50.422Z,78.47
2018-06-16T07:31:19.369Z,78.34
2018-06-16T07:33:48.302Z,78.51
2018-06-16T07:36:17.264Z,78.26
2018-06-16T07:38:46.188Z,78.21
2018-06-16T07:41:15.120Z,78.54
2018-06-16T07:43:44.041Z,78.80
2018-06-16T07:46:12.974Z,78.43
2018-06-16T07:48:41.915Z,78.77
2018-06-16T07:51:14.200Z,78.84
2018-06-16T07:53:43.153Z,78.88
2018-06-16T07:56:12.047Z,78.02
2018-06-16T07:58:40.948Z,77.71
2018-06-16T08:01:09.878Z,78.03
2018-06-16T08:03:38.863Z,77.61
2018-06-16T08:06:07.950Z,78.65
2018-06-16T08:08:36.924Z,78.30
2018-06-16T08:11:05.834Z,78.28
2018-06-16T08:13:35.547Z,78.00
2018-06-16T08:16:04.469Z,78.13
2018-06-16T08:18:33.386Z,78.74
2018-06-16T08:21:02.330Z,78.68
2018-06-16T08:23:31.235Z,78.23
2018-06-16T08:26:01.289Z,77.35
2018-06-16T08:28:30.394Z,77.36
2018-06-16T08:30:59.312Z,77.15
2018-06-16T08:33:28.238Z,77.30
2018-06-16T08:35:57.158Z,77.41
2018-06-16T08:38:26.276Z,77.05
2018-06-16T08:40:59.051Z,76.94
2018-06-16T08:43:27.962Z,77.01
2018-06-16T08:45:57.309Z,77.07
2018-06-16T08:48:27.420Z,77.00
2018-06-16T08:51:00.554Z,75.81
2018-06-16T08:53:29.455Z,75.59
2018-06-16T08:55:58.436Z,75.53
2018-06-16T08:58:27.379Z,75.00
2018-06-16T09:00:56.324Z,75.07
2018-06-16T09:03:26.249Z,74.82
2018-06-16T09:05:55.166Z,74.59
2018-06-16T09:08:24.106Z,74.12
2018-06-16T09:10:53.019Z,74.40
2018-06-16T09:13:23.030Z,73.52
2018-06-16T09:15:51.948Z,72.97
2018-06-16T09:18:20.888Z,73.06
2018-06-16T09:20:49.822Z,71.93
2018-06-16T09:23:18.744Z,72.32
2018-06-16T09:25:47.664Z,72.14
2018-06-16T09:28:16.576Z,72.60
2018-06-16T09:30:45.516Z,73.14
2018-06-16T09:33:14.469Z,72.80
2018-06-16T09:35:43.406Z,73.02
2018-06-16T09:38:12.371Z,73.75
2018-06-16T09:40:41.344Z,74.32
2018-06-16T09:43:10.307Z,73.11
2018-06-16T09:45:39.215Z,71.83
2018-06-16T09:48:08.174Z,71.66
2018-06-16T09:50:37.044Z,71.38
2018-06-16T09:53:05.986Z,71.26
2018-06-16T09:55:34.931Z,70.91
2018-06-16T09:58:03.883Z,69.79
2018-06-16T10:00:38.036Z,70.46
2018-06-16T10:03:06.990Z,70.16
2018-06-16T10:05:35.918Z,68.85
2018-06-16T10:08:04.834Z,68.85
2018-06-16T10:10:33.758Z,68.81
2018-06-16T10:13:02.861Z,68.68
2018-06-16T10:15:32.701Z,66.84
2018-06-16T10:18:01.703Z,64.19
2018-06-16T10:20:30.616Z,66.55
2018-06-16T10:22:59.558Z,66.37
2018-06-16T10:25:28.489Z,64.94
2018-06-16T10:27:57.420Z,61.52
2018-06-16T10:30:26.346Z,61.39
2018-06-16T10:32:55.980Z,60.29
2018-06-16T10:35:24.890Z,60.63
2018-06-16T10:37:53.777Z,61.66
2018-06-16T10:40:22.721Z,61.51
2018-06-16T10:42:51.607Z,62.08
2018-06-16T10:45:24.177Z,62.01
2018-06-16T10:47:53.102Z,62.32
2018-06-16T10:50:22.014Z,62.12
2018-06-16T10:52:50.940Z,61.85
2018-06-16T10:55:19.874Z,62.51
2018-06-16T10:57:48.779Z,61.74
2018-06-16T11:00:17.736Z,62.13
2018-06-16T11:02:49.861Z,62.21
2018-06-16T11:05:18.751Z,61.76
2018-06-16T11:07:47.684Z,62.51
2018-06-16T11:10:16.613Z,63.05
2018-06-16T11:12:45.537Z,61.67
2018-06-16T11:15:14.427Z,61.19
2018-06-16T11:17:43.398Z,60.63
2018-06-16T11:20:12.318Z,60.57
2018-06-16T11:22:41.240Z,59.46
2018-06-16T11:25:10.190Z,59.75
2018-06-16T11:27:39.106Z,58.98
2018-06-16T11:30:08.378Z,58.91
2018-06-16T11:32:37.565Z,60.17
2018-06-16T11:35:06.856Z,61.11
2018-06-16T11:37:35.886Z,62.14
2018-06-16T11:40:04.810Z,61.30
2018-06-16T11:42:33.736Z,61.10
2018-06-16T11:45:02.643Z,61.17
2018-06-16T11:47:31.787Z,62.52
2018-06-16T11:50:00.678Z,60.95
2018-06-16T11:52:29.570Z,58.48
2018-06-16T11:54:58.487Z,58.31
2018-06-16T11:57:27.379Z,58.67
2018-06-16T11:59:56.428Z,59.02
2018-06-16T12:02:25.366Z,59.46
2018-06-16T12:04:54.332Z,59.45
2018-06-16T12:07:23.244Z,59.23
2018-06-16T12:09:52.139Z,58.59
2018-06-16T12:12:21.285Z,58.40
2018-06-16T12:14:53.400Z,58.91
2018-06-16T12:17:22.394Z,59.02
2018-06-16T12:19:51.351Z,57.69
2018-06-16T12:22:20.246Z,58.29
2018-06-16T12:24:52.764Z,58.84
2018-06-16T12:27:21.688Z,57.99
2018-06-16T12:29:50.608Z,58.02
2018-06-16T12:32:19.528Z,57.78
2018-06-16T12:34:48.415Z,57.90
2018-06-16T12:37:17.395Z,57.17
2018-06-16T12:39:46.318Z,57.16
2018-06-16T12:42:15.271Z,56.96
2018-06-16T12:44:44.171Z,56.67
2018-06-16T12:47:13.090Z,55.89
2018-06-16T12:49:41.994Z,56.22
2018-06-16T12:52:10.893Z,55.33
2018-06-16T12:54:39.995Z,55.24
2018-06-16T12:57:08.937Z,56.88
2018-06-16T12:59:37.826Z,56.38
2018-06-16T13:02:06.748Z,56.79
2018-06-16T13:04:35.640Z,55.33
2018-06-16T13:07:04.575Z,55.56
2018-06-16T13:09:33.497Z,55.32
2018-06-16T13:12:02.424Z,56.09
2018-06-16T13:14:31.320Z,55.96
2018-06-16T13:17:00.234Z,55.01
2018-06-16T13:19:29.146Z,54.39
2018-06-16T13:21:58.235Z,54.02
2018-06-16T13:24:27.134Z,52.67
2018-06-16T13:26:56.074Z,51.91
2018-06-16T13:29:24.995Z,52.95
2018-06-16T13:31:53.940Z,53.25
2018-06-16T13:34:22.893Z,54.64
2018-06-16T13:36:51.774Z,54.80
2018-06-16T13:39:20.884Z,52.65
2018-06-16T13:41:49.832Z,51.66
2018-06-16T13:44:18.729Z,51.35
2018-06-16T13:46:47.671Z,52.10
2018-06-16T13:49:16.625Z,52.66
2018-06-16T13:51:45.894Z,51.73
2018-06-16T13:54:14.827Z,51.37
2018-06-16T13:56:43.765Z,52.37
2018-06-16T13:59:12.680Z,52.40
2018-06-16T14:01:41.590Z,51.59
2018-06-16T14:04:10.505Z,52.03
2018-06-16T14:06:39.646Z,52.21
2018-06-16T14:09:09.818Z,51.89
2018-06-16T14:11:38.750Z,52.62
2018-06-16T14:14:07.683Z,52.68
2018-06-16T14:16:36.590Z,51.42
2018-06-16T14:19:05.491Z,52.17
2018-06-16T14:21:34.379Z,52.23
2018-06-16T14:24:03.291Z,53.63
2018-06-16T14:26:32.230Z,52.17
2018-06-16T14:29:01.195Z,51.43
2018-06-16T14:31:30.145Z,53.99
2018-06-16T14:33:59.418Z,52.58
2018-06-16T14:36:28.340Z,53.96
2018-06-16T14:38:57.262Z,53.46
2018-06-16T14:41:26.183Z,54.58
2018-06-16T14:43:55.311Z,53.76
2018-06-16T14:46:24.645Z,52.46
2018-06-16T14:48:53.801Z,51.79
2018-06-16T14:51:22.707Z,51.33
2018-06-16T14:53:55.178Z,51.08
2018-06-16T14:56:24.136Z,50.72
2018-06-16T14:58:53.057Z,51.83
2018-06-16T15:01:21.955Z,53.20
2018-06-16T15:03:50.925Z,52.34
2018-06-16T15:06:19.842Z,52.84
2018-06-16T15:08:48.734Z,53.38
2018-06-16T15:11:19.652Z,52.67
2018-06-16T15:13:48.611Z,51.97
2018-06-16T15:16:17.584Z,52.32
2018-06-16T15:18:46.502Z,52.90
2018-06-16T15:21:15.422Z,53.07
2018-06-16T15:23:44.347Z,53.63
2018-06-16T15:26:13.252Z,56.36
2018-06-16T15:28:42.174Z,55.55
2018-06-16T15:31:12.065Z,54.79
2018-06-16T15:33:41.278Z,54.75
2018-06-16T15:36:10.478Z,54.97
2018-06-16T15:38:39.390Z,54.37
2018-06-16T15:41:08.454Z,55.28
2018-06-16T15:43:37.355Z,55.00
2018-06-16T15:46:06.327Z,55.24
2018-06-16T15:48:35.482Z,56.02
2018-06-16T15:51:04.436Z,56.82
2018-06-16T15:53:33.346Z,56.12
2018-06-16T15:56:02.239Z,54.95
2018-06-16T15:58:34.797Z,54.72
2018-06-16T16:01:03.679Z,56.03
2018-06-16T16:03:32.603Z,55.65
2018-06-16T16:06:02.512Z,55.73
2018-06-16T16:08:31.459Z,55.65
2018-06-16T16:11:00.370Z,56.20
2018-06-16T16:13:29.385Z,55.64
2018-06-16T16:15:58.521Z,55.30
2018-06-16T16:18:27.429Z,54.55
2018-06-16T16:20:56.361Z,53.80
2018-06-16T16:23:25.356Z,54.77
2018-06-16T16:25:54.329Z,55.91
2018-06-16T16:28:23.218Z,58.11
2018-06-16T16:30:52.133Z,59.96
2018-06-16T16:33:21.042Z,63.57
2018-06-16T16:35:50.436Z,66.59
2018-06-16T16:38:19.661Z,69.69
2018-06-16T16:40:48.588Z,71.93
2018-06-16T16:43:17.523Z,75.75
2018-06-16T16:45:46.410Z,77.52
2018-06-16T16:48:15.373Z,79.13
2018-06-16T16:50:44.278Z,82.48
2018-06-16T16:53:13.198Z,85.91
2018-06-16T16:55:42.133Z,87.33
2018-06-16T16:58:11.090Z,87.44
2018-06-16T17:00:40.023Z,88.29
2018-06-16T17:03:08.967Z,89.40
2018-06-16T17:05:37.860Z,89.52
2018-06-16T17:08:06.782Z,90.44
2018-06-16T17:10:35.695Z,90.78
2018-06-16T17:13:04.641Z,92.29
2018-06-16T17:15:33.560Z,91.82
2018-06-16T17:18:02.475Z,90.80
2018-06-16T17:20:31.383Z,90.77
2018-06-16T17:23:00.283Z,91.53
2018-06-16T17:25:29.203Z,90.92
2018-06-16T17:27:58.160Z,91.87
2018-06-16T17:30:27.079Z,91.86
2018-06-16T17:32:55.983Z,93.74
2018-06-16T17:35:24.941Z,93.30
2018-06-16T17:37:53.901Z,92.71
2018-06-16T17:40:22.841Z,92.47
2018-06-16T17:42:51.785Z,92.87
2018-06-16T17:45:20.681Z,93.11
2018-06-16T17:47:49.628Z,93.51
2018-06-16T17:50:18.680Z,92.81
2018-06-16T17:52:47.726Z,93.09
2018-06-16T17:55:16.630Z,93.52
2018-06-16T17:57:45.585Z,93.08
2018-06-16T18:00:14.510Z,93.65
2018-06-16T18:02:43.458Z,93.33
2018-06-16T18:05:12.557Z,93.27
2018-06-16T18:07:41.465Z,94.24
2018-06-16T18:10:10.381Z,94.76
2018-06-16T18:12:39.282Z,94.50
2018-06-16T18:15:08.231Z,94.47
2018-06-16T18:17:37.482Z,94.14
2018-06-16T18:20:06.400Z,95.03
2018-06-16T18:22:35.784Z,94.72
2018-06-16T18:25:08.199Z,94.43
2018-06-16T18:27:37.137Z,95.75
2018-06-16T18:30:06.079Z,95.86
2018-06-16T18:32:34.972Z,95.42
2018-06-16T18:35:03.970Z,95.81
2018-06-16T18:37:32.940Z,95.35
2018-06-16T18:40:01.911Z,96.23
2018-06-16T18:42:30.881Z,94.35
2018-06-16T18:44:59.994Z,92.50
2018-06-16T18:47:28.926Z,89.03
2018-06-16T18:49:57.842Z,83.51
2018-06-16T18:52:26.754Z,80.85
2018-06-16T18:54:55.682Z,80.25
2018-06-16T18:57:24.702Z,78.15
2018-06-16T18:59:53.608Z,78.49
2018-06-16T19:02:22.519Z,80.23
2018-06-16T19:04:51.437Z,78.18
2018-06-16T19:07:20.378Z,77.92
2018-06-16T19:09:49.313Z,78.92
2018-06-16T19:12:18.224Z,83.40
2018-06-16T19:14:47.411Z,84.52
2018-06-16T19:17:16.614Z,84.68
2018-06-16T19:19:46.026Z,84.69
2018-06-16T19:22:15.763Z,86.51
2018-06-16T19:24:48.673Z,86.72
2018-06-16T19:27:17.605Z,86.90
2018-06-16T19:29:46.546Z,87.02
2018-06-16T19:32:15.514Z,87.65
2018-06-16T19:34:44.436Z,87.22
2018-06-16T19:37:13.405Z,87.62
2018-06-16T19:39:42.336Z,87.90
2018-06-16T19:42:11.280Z,87.59
2018-06-16T19:44:40.206Z,88.24
2018-06-16T19:47:09.108Z,88.14
2018-06-16T19:49:38.046Z,88.38
2018-06-16T19:52:07.106Z,88.57
2018-06-16T19:54:36.021Z,87.75
2018-06-16T19:57:05.009Z,88.43
2018-06-16T19:59:34.053Z,88.62
2018-06-16T20:02:03.071Z,89.04
2018-06-16T20:04:31.929Z,89.32
2018-06-16T20:07:04.432Z,89.61
2018-06-16T20:09:33.354Z,89.73
2018-06-16T20:12:02.274Z,89.91
2018-06-16T20:14:31.194Z,90.41
2018-06-16T20:17:00.100Z,90.09
2018-06-16T20:19:29.132Z,90.70
2018-06-16T20:21:58.266Z,90.67
2018-06-16T20:24:27.276Z,90.46
2018-06-16T20:26:56.203Z,90.65
2018-06-16T20:29:25.109Z,90.72
2018-06-16T20:31:54.108Z,90.65
2018-06-16T20:34:23.032Z,90.72
2018-06-16T20:36:51.950Z,90.19
2018-06-16T20:39:21.230Z,85.91
2018-06-16T20:41:50.131Z,82.76
2018-06-16T20:44:19.060Z,78.97
2018-06-16T20:46:47.983Z,79.06
2018-06-16T20:49:17.087Z,78.45
2018-06-16T20:51:46.027Z,78.47
2018-06-16T20:54:16.052Z,77.49
2018-06-16T20:56:45.011Z,77.77
2018-06-16T20:59:13.920Z,76.51
2018-06-16T21:01:43.147Z,76.07
2018-06-16T21:04:12.092Z,76.41
2018-06-16T21:06:41.026Z,76.65
2018-06-16T21:09:11.354Z,76.20
2018-06-16T21:11:40.387Z,76.34
2018-06-16T21:14:09.373Z,76.32
2018-06-16T21:16:38.290Z,75.27
2018-06-16T21:19:07.443Z,75.09
2018-06-16T21:21:36.790Z,74.36
2018-06-16T21:24:05.877Z,74.46
2018-06-16T21:26:34.980Z,74.24
2018-06-16T21:29:04.019Z,75.15
2018-06-16T21:31:32.929Z,74.58
2018-06-16T21:34:01.871Z,75.44
2018-06-16T21:36:30.784Z,75.45
2018-06-16T21:38:59.814Z,73.88
2018-06-16T21:41:28.734Z,73.60
2018-06-16T21:43:57.695Z,74.89
2018-06-16T21:46:26.617Z,77.64
2018-06-16T21:48:55.715Z,79.00
2018-06-16T21:51:24.653Z,80.15
2018-06-16T21:53:53.648Z,81.75
2018-06-16T21:56:22.619Z,83.96
2018-06-16T21:58:51.571Z,84.76
2018-06-16T22:01:20.538Z,85.69
2018-06-16T22:03:49.460Z,84.75
2018-06-16T22:06:18.382Z,84.42
2018-06-16T22:08:47.367Z,85.43
2018-06-16T22:11:16.373Z,86.07
2018-06-16T22:13:46.170Z,86.26
2018-06-16T22:16:15.124Z,85.96
2018-06-16T22:18:44.036Z,85.97
2018-06-16T22:21:12.958Z,86.15
2018-06-16T22:23:41.951Z,86.33
2018-06-16T22:26:10.878Z,86.08
2018-06-16T22:28:39.956Z,86.01
2018-06-16T22:31:08.929Z,86.56
2018-06-16T22:33:37.849Z,87.20
2018-06-16T22:36:06.900Z,86.66
2018-06-16T22:38:35.817Z,86.75
2018-06-16T22:41:04.793Z,86.62
2018-06-16T22:43:33.741Z,86.66
2018-06-16T22:46:02.644Z,85.83
2018-06-16T22:48:31.832Z,85.90
2018-06-16T22:51:00.749Z,86.83
2018-06-16T22:53:29.688Z,87.17
2018-06-16T22:55:58.662Z,86.39
2018-06-16T22:58:27.563Z,86.81
2018-06-16T23:00:56.494Z,86.77
2018-06-16T23:03:25.424Z,87.47
2018-06-16T23:05:54.582Z,87.32
2018-06-16T23:08:23.529Z,87.32
2018-06-16T23:10:52.448Z,87.76
2018-06-16T23:13:21.397Z,87.04
2018-06-16T23:15:50.352Z,87.24
2018-06-16T23:18:19.594Z,87.09
2018-06-16T23:20:48.844Z,87.24
2018-06-16T23:23:18.055Z,88.01
2018-06-16T23:25:47.035Z,87.51
2018-06-16T23:28:15.952Z,87.69
2018-06-16T23:30:44.904Z,88.34
2018-06-16T23:33:13.834Z,88.41
2018-06-16T23:35:42.775Z,87.44
2018-06-16T23:38:11.840Z,88.42
2018-06-16T23:40:40.744Z,83.25
2018-06-16T23:43:09.750Z,83.07
2018-06-16T23:45:38.664Z,78.73
2018-06-16T23:48:07.625Z,78.92
2018-06-16T23:50:36.547Z,74.76
2018-06-16T23:53:05.486Z,75.33
2018-06-16T23:55:34.836Z,72.55
2018-06-16T23:58:04.113Z,73.25
